sensor_id;sensor_type;location;lat;lon;timestamp;P1;durP1;ratioP1;P2;durP2;ratioP2
17993;SDS011;9122;48.406;9.984;2023-05-07T00:02:23;3.57;;;3.37;;
17993;SDS011;9122;48.406;9.984;2023-05-07T00:05:08;7.97;;;4.37;;
17993;SDS011;9122;48.406;9.984;2023-05-07T00:07:52;3.97;;;3.67;;
17993;SDS011;9122;48.406;9.984;2023-05-07T00:10:36;3.80;;;3.53;;
17993;SDS011;9122;48.406;9.984;2023-05-07T00:13:21;3.77;;;3.40;;
17993;SDS011;9122;48.406;9.984;2023-05-07T00:16:05;3.47;;;3.27;;
17993;SDS011;9122;48.406;9.984;2023-05-07T00:18:49;4.13;;;3.67;;
17993;SDS011;9122;48.406;9.984;2023-05-07T00:21:34;3.90;;;3.60;;
17993;SDS011;9122;48.406;9.984;2023-05-07T00:24:18;5.37;;;4.00;;
17993;SDS011;9122;48.406;9.984;2023-05-07T00:27:03;4.10;;;3.77;;
17993;SDS011;9122;48.406;9.984;2023-05-07T00:29:47;3.87;;;3.50;;
17993;SDS011;9122;48.406;9.984;2023-05-07T00:32:31;3.67;;;3.47;;
17993;SDS011;9122;48.406;9.984;2023-05-07T00:35:15;3.77;;;3.47;;
17993;SDS011;9122;48.406;9.984;2023-05-07T00:38:00;3.90;;;3.60;;
17993;SDS011;9122;48.406;9.984;2023-05-07T00:40:45;5.50;;;4.10;;
17993;SDS011;9122;48.406;9.984;2023-05-07T00:43:29;4.07;;;3.77;;
17993;SDS011;9122;48.406;9.984;2023-05-07T00:46:13;4.33;;;3.93;;
17993;SDS011;9122;48.406;9.984;2023-05-07T00:48:59;4.00;;;3.60;;
17993;SDS011;9122;48.406;9.984;2023-05-07T00:51:44;4.47;;;4.07;;
17993;SDS011;9122;48.406;9.984;2023-05-07T00:54:29;4.83;;;4.33;;
17993;SDS011;9122;48.406;9.984;2023-05-07T00:57:14;3.97;;;3.57;;
17993;SDS011;9122;48.406;9.984;2023-05-07T00:59:59;5.10;;;4.00;;
17993;SDS011;9122;48.406;9.984;2023-05-07T01:02:43;4.13;;;3.93;;
17993;SDS011;9122;48.406;9.984;2023-05-07T01:05:28;4.90;;;4.17;;
17993;SDS011;9122;48.406;9.984;2023-05-07T01:08:14;4.73;;;4.33;;
17993;SDS011;9122;48.406;9.984;2023-05-07T01:10:59;5.07;;;4.67;;
17993;SDS011;9122;48.406;9.984;2023-05-07T01:13:44;4.93;;;4.53;;
17993;SDS011;9122;48.406;9.984;2023-05-07T01:16:29;5.37;;;4.83;;
17993;SDS011;9122;48.406;9.984;2023-05-07T01:19:14;4.73;;;4.43;;
17993;SDS011;9122;48.406;9.984;2023-05-07T01:22:07;5.73;;;5.20;;
17993;SDS011;9122;48.406;9.984;2023-05-07T01:24:52;4.70;;;4.40;;
17993;SDS011;9122;48.406;9.984;2023-05-07T01:27:37;5.57;;;5.17;;
17993;SDS011;9122;48.406;9.984;2023-05-07T01:30:22;8.67;;;4.70;;
17993;SDS011;9122;48.406;9.984;2023-05-07T01:33:10;5.27;;;4.67;;
17993;SDS011;9122;48.406;9.984;2023-05-07T01:35:58;4.70;;;4.30;;
17993;SDS011;9122;48.406;9.984;2023-05-07T01:38:45;4.47;;;4.07;;
17993;SDS011;9122;48.406;9.984;2023-05-07T01:41:30;4.73;;;4.43;;
17993;SDS011;9122;48.406;9.984;2023-05-07T01:44:15;5.40;;;5.00;;
17993;SDS011;9122;48.406;9.984;2023-05-07T01:47:01;4.23;;;3.80;;
17993;SDS011;9122;48.406;9.984;2023-05-07T01:49:46;6.53;;;3.93;;
17993;SDS011;9122;48.406;9.984;2023-05-07T01:52:31;4.70;;;4.30;;
17993;SDS011;9122;48.406;9.984;2023-05-07T01:55:16;4.93;;;4.63;;
17993;SDS011;9122;48.406;9.984;2023-05-07T01:58:03;4.80;;;4.40;;
17993;SDS011;9122;48.406;9.984;2023-05-07T02:00:47;4.20;;;3.90;;
17993;SDS011;9122;48.406;9.984;2023-05-07T02:03:32;4.70;;;4.40;;
17993;SDS011;9122;48.406;9.984;2023-05-07T02:06:16;4.17;;;3.77;;
17993;SDS011;9122;48.406;9.984;2023-05-07T02:09:01;6.17;;;4.30;;
17993;SDS011;9122;48.406;9.984;2023-05-07T02:11:46;4.67;;;4.30;;
17993;SDS011;9122;48.406;9.984;2023-05-07T02:14:30;4.73;;;4.33;;
17993;SDS011;9122;48.406;9.984;2023-05-07T02:17:15;6.90;;;4.30;;
17993;SDS011;9122;48.406;9.984;2023-05-07T02:19:59;4.73;;;4.30;;
17993;SDS011;9122;48.406;9.984;2023-05-07T02:22:43;5.07;;;4.70;;
17993;SDS011;9122;48.406;9.984;2023-05-07T02:25:28;4.60;;;4.20;;
17993;SDS011;9122;48.406;9.984;2023-05-07T02:28:13;5.00;;;4.60;;
17993;SDS011;9122;48.406;9.984;2023-05-07T02:30:57;4.93;;;4.50;;
17993;SDS011;9122;48.406;9.984;2023-05-07T02:33:43;4.57;;;4.27;;
17993;SDS011;9122;48.406;9.984;2023-05-07T02:36:29;5.70;;;4.50;;
17993;SDS011;9122;48.406;9.984;2023-05-07T02:39:13;5.77;;;4.33;;
17993;SDS011;9122;48.406;9.984;2023-05-07T02:41:59;4.97;;;4.53;;
17993;SDS011;9122;48.406;9.984;2023-05-07T02:44:43;4.83;;;4.53;;
17993;SDS011;9122;48.406;9.984;2023-05-07T02:47:28;5.13;;;4.73;;
17993;SDS011;9122;48.406;9.984;2023-05-07T02:50:13;4.57;;;4.17;;
17993;SDS011;9122;48.406;9.984;2023-05-07T02:52:57;5.17;;;4.10;;
17993;SDS011;9122;48.406;9.984;2023-05-07T02:55:42;4.30;;;4.00;;
17993;SDS011;9122;48.406;9.984;2023-05-07T02:58:27;6.10;;;4.43;;
17993;SDS011;9122;48.406;9.984;2023-05-07T03:01:12;4.67;;;4.30;;
17993;SDS011;9122;48.406;9.984;2023-05-07T03:03:57;4.50;;;4.10;;
17993;SDS011;9122;48.406;9.984;2023-05-07T03:06:41;5.00;;;4.47;;
17993;SDS011;9122;48.406;9.984;2023-05-07T03:09:26;4.53;;;4.23;;
17993;SDS011;9122;48.406;9.984;2023-05-07T03:12:10;5.57;;;5.10;;
17993;SDS011;9122;48.406;9.984;2023-05-07T03:14:54;4.77;;;4.37;;
17993;SDS011;9122;48.406;9.984;2023-05-07T03:17:39;4.97;;;4.67;;
17993;SDS011;9122;48.406;9.984;2023-05-07T03:20:23;4.87;;;4.57;;
17993;SDS011;9122;48.406;9.984;2023-05-07T03:23:08;6.53;;;5.50;;
17993;SDS011;9122;48.406;9.984;2023-05-07T03:25:52;5.27;;;4.37;;
17993;SDS011;9122;48.406;9.984;2023-05-07T03:28:36;5.93;;;4.83;;
17993;SDS011;9122;48.406;9.984;2023-05-07T03:31:20;4.73;;;4.33;;
17993;SDS011;9122;48.406;9.984;2023-05-07T03:34:05;4.37;;;3.97;;
17993;SDS011;9122;48.406;9.984;2023-05-07T03:36:49;4.17;;;3.87;;
17993;SDS011;9122;48.406;9.984;2023-05-07T03:39:33;4.57;;;4.27;;
17993;SDS011;9122;48.406;9.984;2023-05-07T03:42:18;4.80;;;4.47;;
17993;SDS011;9122;48.406;9.984;2023-05-07T03:45:02;4.67;;;4.27;;
17993;SDS011;9122;48.406;9.984;2023-05-07T03:47:47;8.47;;;4.20;;
17993;SDS011;9122;48.406;9.984;2023-05-07T03:50:31;6.13;;;5.10;;
17993;SDS011;9122;48.406;9.984;2023-05-07T03:53:16;5.47;;;4.50;;
17993;SDS011;9122;48.406;9.984;2023-05-07T03:56:00;4.87;;;4.57;;
17993;SDS011;9122;48.406;9.984;2023-05-07T03:58:44;4.90;;;4.60;;
17993;SDS011;9122;48.406;9.984;2023-05-07T04:01:29;4.67;;;4.37;;
17993;SDS011;9122;48.406;9.984;2023-05-07T04:04:14;4.90;;;4.50;;
17993;SDS011;9122;48.406;9.984;2023-05-07T04:06:58;5.10;;;4.70;;
17993;SDS011;9122;48.406;9.984;2023-05-07T04:09:44;4.57;;;4.23;;
17993;SDS011;9122;48.406;9.984;2023-05-07T04:12:29;5.00;;;4.50;;
17993;SDS011;9122;48.406;9.984;2023-05-07T04:15:13;4.30;;;4.00;;
17993;SDS011;9122;48.406;9.984;2023-05-07T04:17:58;4.83;;;4.43;;
17993;SDS011;9122;48.406;9.984;2023-05-07T04:20:42;4.57;;;4.23;;
17993;SDS011;9122;48.406;9.984;2023-05-07T04:23:27;4.90;;;4.20;;
17993;SDS011;9122;48.406;9.984;2023-05-07T04:26:11;5.30;;;4.80;;
17993;SDS011;9122;48.406;9.984;2023-05-07T04:28:56;4.73;;;4.37;;
17993;SDS011;9122;48.406;9.984;2023-05-07T04:31:43;4.47;;;4.17;;
17993;SDS011;9122;48.406;9.984;2023-05-07T04:34:27;4.27;;;3.97;;
17993;SDS011;9122;48.406;9.984;2023-05-07T04:37:12;4.53;;;4.23;;
17993;SDS011;9122;48.406;9.984;2023-05-07T04:39:57;4.67;;;4.23;;
17993;SDS011;9122;48.406;9.984;2023-05-07T04:42:41;5.90;;;4.43;;
17993;SDS011;9122;48.406;9.984;2023-05-07T04:45:26;4.50;;;3.90;;
17993;SDS011;9122;48.406;9.984;2023-05-07T04:48:10;4.57;;;4.03;;
17993;SDS011;9122;48.406;9.984;2023-05-07T04:50:54;5.00;;;4.70;;
17993;SDS011;9122;48.406;9.984;2023-05-07T04:53:38;4.60;;;4.20;;
17993;SDS011;9122;48.406;9.984;2023-05-07T04:56:23;5.10;;;4.70;;
17993;SDS011;9122;48.406;9.984;2023-05-07T04:59:07;4.40;;;4.00;;
17993;SDS011;9122;48.406;9.984;2023-05-07T05:01:52;4.53;;;4.23;;
17993;SDS011;9122;48.406;9.984;2023-05-07T05:04:36;4.37;;;3.97;;
17993;SDS011;9122;48.406;9.984;2023-05-07T05:07:21;4.80;;;4.40;;
17993;SDS011;9122;48.406;9.984;2023-05-07T05:10:05;4.90;;;4.40;;
17993;SDS011;9122;48.406;9.984;2023-05-07T05:12:50;5.50;;;4.57;;
17993;SDS011;9122;48.406;9.984;2023-05-07T05:15:35;4.17;;;3.87;;
17993;SDS011;9122;48.406;9.984;2023-05-07T05:18:19;4.60;;;4.17;;
17993;SDS011;9122;48.406;9.984;2023-05-07T05:21:04;4.70;;;4.40;;
17993;SDS011;9122;48.406;9.984;2023-05-07T05:23:49;4.60;;;4.20;;
17993;SDS011;9122;48.406;9.984;2023-05-07T05:26:34;5.00;;;4.60;;
17993;SDS011;9122;48.406;9.984;2023-05-07T05:29:18;4.97;;;4.50;;
17993;SDS011;9122;48.406;9.984;2023-05-07T05:32:03;4.90;;;4.50;;
17993;SDS011;9122;48.406;9.984;2023-05-07T05:34:48;4.70;;;4.30;;
17993;SDS011;9122;48.406;9.984;2023-05-07T05:37:32;4.50;;;4.10;;
17993;SDS011;9122;48.406;9.984;2023-05-07T05:40:16;5.50;;;5.10;;
17993;SDS011;9122;48.406;9.984;2023-05-07T05:43:00;4.67;;;4.27;;
17993;SDS011;9122;48.406;9.984;2023-05-07T05:45:45;4.87;;;4.50;;
17993;SDS011;9122;48.406;9.984;2023-05-07T05:48:29;6.40;;;4.53;;
17993;SDS011;9122;48.406;9.984;2023-05-07T05:51:14;4.37;;;4.07;;
17993;SDS011;9122;48.406;9.984;2023-05-07T05:53:59;4.87;;;4.43;;
17993;SDS011;9122;48.406;9.984;2023-05-07T05:56:43;5.37;;;4.57;;
17993;SDS011;9122;48.406;9.984;2023-05-07T05:59:29;5.07;;;4.57;;
17993;SDS011;9122;48.406;9.984;2023-05-07T06:02:14;5.97;;;4.87;;
17993;SDS011;9122;48.406;9.984;2023-05-07T06:04:58;6.40;;;5.10;;
17993;SDS011;9122;48.406;9.984;2023-05-07T06:07:43;7.23;;;4.70;;
17993;SDS011;9122;48.406;9.984;2023-05-07T06:10:29;5.53;;;5.13;;
17993;SDS011;9122;48.406;9.984;2023-05-07T06:13:17;5.43;;;5.00;;
17993;SDS011;9122;48.406;9.984;2023-05-07T06:16:01;5.87;;;4.93;;
17993;SDS011;9122;48.406;9.984;2023-05-07T06:18:46;6.00;;;5.50;;
17993;SDS011;9122;48.406;9.984;2023-05-07T06:21:30;5.50;;;5.03;;
17993;SDS011;9122;48.406;9.984;2023-05-07T06:24:15;6.27;;;5.70;;
17993;SDS011;9122;48.406;9.984;2023-05-07T06:27:00;6.63;;;6.03;;
17993;SDS011;9122;48.406;9.984;2023-05-07T06:29:44;6.53;;;6.07;;
17993;SDS011;9122;48.406;9.984;2023-05-07T06:32:29;6.23;;;5.73;;
17993;SDS011;9122;48.406;9.984;2023-05-07T06:35:14;6.93;;;5.60;;
17993;SDS011;9122;48.406;9.984;2023-05-07T06:37:59;6.60;;;6.00;;
17993;SDS011;9122;48.406;9.984;2023-05-07T06:40:43;5.37;;;4.93;;
17993;SDS011;9122;48.406;9.984;2023-05-07T06:43:31;5.70;;;5.20;;
17993;SDS011;9122;48.406;9.984;2023-05-07T06:46:16;6.60;;;6.00;;
17993;SDS011;9122;48.406;9.984;2023-05-07T06:49:00;6.07;;;5.57;;
17993;SDS011;9122;48.406;9.984;2023-05-07T06:51:44;6.47;;;5.87;;
17993;SDS011;9122;48.406;9.984;2023-05-07T06:54:28;6.17;;;5.67;;
17993;SDS011;9122;48.406;9.984;2023-05-07T06:57:13;6.57;;;6.07;;
17993;SDS011;9122;48.406;9.984;2023-05-07T06:59:58;6.70;;;6.13;;
17993;SDS011;9122;48.406;9.984;2023-05-07T07:02:42;7.07;;;6.47;;
17993;SDS011;9122;48.406;9.984;2023-05-07T07:05:27;6.33;;;5.73;;
17993;SDS011;9122;48.406;9.984;2023-05-07T07:08:12;6.93;;;6.30;;
17993;SDS011;9122;48.406;9.984;2023-05-07T07:10:57;7.20;;;6.67;;
17993;SDS011;9122;48.406;9.984;2023-05-07T07:13:41;6.90;;;6.30;;
17993;SDS011;9122;48.406;9.984;2023-05-07T07:16:26;6.63;;;6.13;;
17993;SDS011;9122;48.406;9.984;2023-05-07T07:19:11;6.70;;;6.20;;
17993;SDS011;9122;48.406;9.984;2023-05-07T07:21:55;7.47;;;6.87;;
17993;SDS011;9122;48.406;9.984;2023-05-07T07:24:40;9.53;;;6.80;;
17993;SDS011;9122;48.406;9.984;2023-05-07T07:27:24;6.83;;;6.13;;
17993;SDS011;9122;48.406;9.984;2023-05-07T07:30:08;8.27;;;6.23;;
17993;SDS011;9122;48.406;9.984;2023-05-07T07:32:53;6.70;;;6.20;;
17993;SDS011;9122;48.406;9.984;2023-05-07T07:35:39;7.97;;;7.20;;
17993;SDS011;9122;48.406;9.984;2023-05-07T07:38:23;7.00;;;6.40;;
17993;SDS011;9122;48.406;9.984;2023-05-07T07:41:08;7.13;;;6.63;;
17993;SDS011;9122;48.406;9.984;2023-05-07T07:43:53;6.10;;;5.60;;
17993;SDS011;9122;48.406;9.984;2023-05-07T07:46:38;6.13;;;5.72;;
17993;SDS011;9122;48.406;9.984;2023-05-07T07:49:22;6.80;;;6.18;;
17993;SDS011;9122;48.406;9.984;2023-05-07T07:52:06;6.55;;;6.05;;
17993;SDS011;9122;48.406;9.984;2023-05-07T07:54:50;6.38;;;5.85;;
17993;SDS011;9122;48.406;9.984;2023-05-07T07:57:34;6.13;;;5.63;;
17993;SDS011;9122;48.406;9.984;2023-05-07T08:00:19;6.05;;;5.55;;
17993;SDS011;9122;48.406;9.984;2023-05-07T08:03:03;6.47;;;5.88;;
17993;SDS011;9122;48.406;9.984;2023-05-07T08:05:49;6.82;;;6.30;;
17993;SDS011;9122;48.406;9.984;2023-05-07T08:08:35;7.47;;;6.85;;
17993;SDS011;9122;48.406;9.984;2023-05-07T08:11:20;6.22;;;5.63;;
17993;SDS011;9122;48.406;9.984;2023-05-07T08:14:04;7.20;;;6.57;;
17993;SDS011;9122;48.406;9.984;2023-05-07T08:16:49;6.50;;;5.95;;
17993;SDS011;9122;48.406;9.984;2023-05-07T08:19:33;8.05;;;6.03;;
17993;SDS011;9122;48.406;9.984;2023-05-07T08:22:17;5.68;;;5.18;;
17993;SDS011;9122;48.406;9.984;2023-05-07T08:25:02;6.20;;;5.60;;
17993;SDS011;9122;48.406;9.984;2023-05-07T08:27:47;5.50;;;5.10;;
17993;SDS011;9122;48.406;9.984;2023-05-07T08:30:32;6.03;;;5.43;;
17993;SDS011;9122;48.406;9.984;2023-05-07T08:33:16;6.03;;;5.53;;
17993;SDS011;9122;48.406;9.984;2023-05-07T08:36:00;7.00;;;6.40;;
17993;SDS011;9122;48.406;9.984;2023-05-07T08:38:45;5.85;;;5.30;;
17993;SDS011;9122;48.406;9.984;2023-05-07T08:41:29;6.70;;;6.13;;
17993;SDS011;9122;48.406;9.984;2023-05-07T08:44:14;6.40;;;5.90;;
17993;SDS011;9122;48.406;9.984;2023-05-07T08:47:02;6.82;;;6.22;;
17993;SDS011;9122;48.406;9.984;2023-05-07T08:49:49;13.38;;;6.18;;
17993;SDS011;9122;48.406;9.984;2023-05-07T08:52:34;5.70;;;5.30;;
17993;SDS011;9122;48.406;9.984;2023-05-07T08:55:19;6.15;;;5.65;;
17993;SDS011;9122;48.406;9.984;2023-05-07T08:58:04;7.40;;;6.53;;
17993;SDS011;9122;48.406;9.984;2023-05-07T09:00:48;6.45;;;5.95;;
17993;SDS011;9122;48.406;9.984;2023-05-07T09:03:33;7.07;;;6.40;;
17993;SDS011;9122;48.406;9.984;2023-05-07T09:06:18;6.22;;;5.78;;
17993;SDS011;9122;48.406;9.984;2023-05-07T09:09:02;6.05;;;5.63;;
17993;SDS011;9122;48.406;9.984;2023-05-07T09:11:51;7.30;;;6.60;;
17993;SDS011;9122;48.406;9.984;2023-05-07T09:14:42;7.05;;;5.50;;
17993;SDS011;9122;48.406;9.984;2023-05-07T09:17:26;6.25;;;5.75;;
17993;SDS011;9122;48.406;9.984;2023-05-07T09:20:12;6.53;;;5.93;;
17993;SDS011;9122;48.406;9.984;2023-05-07T09:22:57;6.72;;;6.20;;
17993;SDS011;9122;48.406;9.984;2023-05-07T09:25:42;7.25;;;6.38;;
17993;SDS011;9122;48.406;9.984;2023-05-07T09:28:26;6.72;;;6.22;;
17993;SDS011;9122;48.406;9.984;2023-05-07T09:31:11;6.22;;;5.63;;
17993;SDS011;9122;48.406;9.984;2023-05-07T09:33:55;6.43;;;5.82;;
17993;SDS011;9122;48.406;9.984;2023-05-07T09:36:40;5.70;;;5.20;;
17993;SDS011;9122;48.406;9.984;2023-05-07T09:39:24;6.47;;;4.97;;
17993;SDS011;9122;48.406;9.984;2023-05-07T09:42:09;6.13;;;5.65;;
17993;SDS011;9122;48.406;9.984;2023-05-07T09:44:55;5.53;;;5.13;;
17993;SDS011;9122;48.406;9.984;2023-05-07T09:47:40;5.95;;;5.55;;
17993;SDS011;9122;48.406;9.984;2023-05-07T09:50:30;5.53;;;5.10;;
17993;SDS011;9122;48.406;9.984;2023-05-07T09:53:20;4.80;;;4.45;;
17993;SDS011;9122;48.406;9.984;2023-05-07T09:56:06;6.15;;;5.13;;
17993;SDS011;9122;48.406;9.984;2023-05-07T09:58:51;5.18;;;4.78;;
17993;SDS011;9122;48.406;9.984;2023-05-07T10:01:43;5.85;;;5.35;;
17993;SDS011;9122;48.406;9.984;2023-05-07T10:04:28;6.60;;;5.97;;
17993;SDS011;9122;48.406;9.984;2023-05-07T10:07:14;6.15;;;5.65;;
17993;SDS011;9122;48.406;9.984;2023-05-07T10:10:00;6.03;;;5.28;;
17993;SDS011;9122;48.406;9.984;2023-05-07T10:12:46;5.20;;;4.75;;
17993;SDS011;9122;48.406;9.984;2023-05-07T10:15:31;5.40;;;4.40;;
17993;SDS011;9122;48.406;9.984;2023-05-07T10:18:16;5.90;;;5.40;;
17993;SDS011;9122;48.406;9.984;2023-05-07T10:21:16;5.05;;;4.43;;
17993;SDS011;9122;48.406;9.984;2023-05-07T10:24:04;5.85;;;5.30;;
17993;SDS011;9122;48.406;9.984;2023-05-07T10:26:54;5.47;;;4.97;;
17993;SDS011;9122;48.406;9.984;2023-05-07T10:32:57;6.00;;;5.50;;
17993;SDS011;9122;48.406;9.984;2023-05-07T10:35:49;4.78;;;4.03;;
17993;SDS011;9122;48.406;9.984;2023-05-07T10:38:33;4.40;;;4.10;;
17993;SDS011;9122;48.406;9.984;2023-05-07T10:41:18;6.43;;;4.30;;
17993;SDS011;9122;48.406;9.984;2023-05-07T10:44:04;5.00;;;4.63;;
17993;SDS011;9122;48.406;9.984;2023-05-07T10:47:11;5.35;;;4.95;;
17993;SDS011;9122;48.406;9.984;2023-05-07T10:52:38;4.93;;;4.63;;
17993;SDS011;9122;48.406;9.984;2023-05-07T10:55:23;5.28;;;4.95;;
17993;SDS011;9122;48.406;9.984;2023-05-07T10:58:30;5.85;;;5.22;;
17993;SDS011;9122;48.406;9.984;2023-05-07T11:01:14;5.78;;;5.18;;
17993;SDS011;9122;48.406;9.984;2023-05-07T11:04:13;5.07;;;4.68;;
17993;SDS011;9122;48.406;9.984;2023-05-07T11:12:51;5.28;;;4.88;;
17993;SDS011;9122;48.406;9.984;2023-05-07T11:15:40;6.15;;;5.72;;
17993;SDS011;9122;48.406;9.984;2023-05-07T11:18:50;5.53;;;4.93;;
17993;SDS011;9122;48.406;9.984;2023-05-07T11:24:24;6.28;;;5.78;;
17993;SDS011;9122;48.406;9.984;2023-05-07T11:27:09;5.50;;;5.00;;
17993;SDS011;9122;48.406;9.984;2023-05-07T11:29:54;5.82;;;5.35;;
17993;SDS011;9122;48.406;9.984;2023-05-07T11:32:38;5.68;;;5.20;;
17993;SDS011;9122;48.406;9.984;2023-05-07T11:35:23;5.40;;;5.00;;
17993;SDS011;9122;48.406;9.984;2023-05-07T11:38:08;5.05;;;4.68;;
17993;SDS011;9122;48.406;9.984;2023-05-07T11:40:54;5.18;;;4.45;;
17993;SDS011;9122;48.406;9.984;2023-05-07T11:43:53;6.35;;;5.32;;
17993;SDS011;9122;48.406;9.984;2023-05-07T11:46:44;5.30;;;4.82;;
17993;SDS011;9122;48.406;9.984;2023-05-07T11:49:29;5.50;;;5.03;;
17993;SDS011;9122;48.406;9.984;2023-05-07T11:52:14;6.07;;;5.57;;
17993;SDS011;9122;48.406;9.984;2023-05-07T11:55:02;5.70;;;5.30;;
17993;SDS011;9122;48.406;9.984;2023-05-07T11:57:50;7.10;;;4.43;;
17993;SDS011;9122;48.406;9.984;2023-05-07T12:00:34;4.22;;;3.92;;
17993;SDS011;9122;48.406;9.984;2023-05-07T12:03:18;3.80;;;3.50;;
17993;SDS011;9122;48.406;9.984;2023-05-07T12:06:06;3.92;;;3.63;;
17993;SDS011;9122;48.406;9.984;2023-05-07T12:08:51;3.80;;;3.53;;
17993;SDS011;9122;48.406;9.984;2023-05-07T12:11:37;4.93;;;4.53;;
17993;SDS011;9122;48.406;9.984;2023-05-07T12:14:26;4.60;;;4.20;;
17993;SDS011;9122;48.406;9.984;2023-05-07T12:17:13;4.07;;;3.75;;
17993;SDS011;9122;48.406;9.984;2023-05-07T12:19:58;4.53;;;4.13;;
17993;SDS011;9122;48.406;9.984;2023-05-07T12:22:42;3.95;;;3.65;;
17993;SDS011;9122;48.406;9.984;2023-05-07T12:25:29;4.10;;;3.80;;
17993;SDS011;9122;48.406;9.984;2023-05-07T12:28:15;8.57;;;3.95;;
17993;SDS011;9122;48.406;9.984;2023-05-07T12:31:00;4.20;;;3.90;;
17993;SDS011;9122;48.406;9.984;2023-05-07T12:33:45;3.28;;;3.08;;
17993;SDS011;9122;48.406;9.984;2023-05-07T12:36:39;3.67;;;3.40;;
17993;SDS011;9122;48.406;9.984;2023-05-07T12:39:24;8.13;;;4.20;;
17993;SDS011;9122;48.406;9.984;2023-05-07T12:42:08;3.88;;;3.58;;
17993;SDS011;9122;48.406;9.984;2023-05-07T12:45:14;3.80;;;3.50;;
17993;SDS011;9122;48.406;9.984;2023-05-07T12:48:01;3.05;;;2.78;;
17993;SDS011;9122;48.406;9.984;2023-05-07T12:50:50;3.90;;;2.88;;
17993;SDS011;9122;48.406;9.984;2023-05-07T12:53:39;4.30;;;3.28;;
17993;SDS011;9122;48.406;9.984;2023-05-07T12:56:26;3.00;;;2.80;;
17993;SDS011;9122;48.406;9.984;2023-05-07T12:59:10;3.17;;;2.92;;
17993;SDS011;9122;48.406;9.984;2023-05-07T13:01:54;3.45;;;3.15;;
17993;SDS011;9122;48.406;9.984;2023-05-07T13:04:38;3.13;;;2.90;;
17993;SDS011;9122;48.406;9.984;2023-05-07T13:07:24;3.75;;;2.92;;
17993;SDS011;9122;48.406;9.984;2023-05-07T13:10:10;3.00;;;2.80;;
17993;SDS011;9122;48.406;9.984;2023-05-07T13:12:54;2.63;;;2.42;;
17993;SDS011;9122;48.406;9.984;2023-05-07T13:15:38;2.70;;;2.50;;
17993;SDS011;9122;48.406;9.984;2023-05-07T13:18:24;2.72;;;2.53;;
17993;SDS011;9122;48.406;9.984;2023-05-07T13:21:10;2.88;;;2.67;;
17993;SDS011;9122;48.406;9.984;2023-05-07T13:23:56;2.92;;;2.75;;
17993;SDS011;9122;48.406;9.984;2023-05-07T13:26:41;3.58;;;3.38;;
17993;SDS011;9122;48.406;9.984;2023-05-07T13:29:26;3.15;;;2.95;;
17993;SDS011;9122;48.406;9.984;2023-05-07T13:32:13;3.30;;;3.00;;
17993;SDS011;9122;48.406;9.984;2023-05-07T13:34:58;3.00;;;2.75;;
17993;SDS011;9122;48.406;9.984;2023-05-07T13:37:42;2.60;;;2.40;;
17993;SDS011;9122;48.406;9.984;2023-05-07T13:40:27;2.47;;;2.38;;
17993;SDS011;9122;48.406;9.984;2023-05-07T13:43:11;2.58;;;2.45;;
17993;SDS011;9122;48.406;9.984;2023-05-07T13:45:55;3.25;;;2.50;;
17993;SDS011;9122;48.406;9.984;2023-05-07T13:48:39;2.83;;;2.63;;
17993;SDS011;9122;48.406;9.984;2023-05-07T13:51:23;2.50;;;2.30;;
17993;SDS011;9122;48.406;9.984;2023-05-07T13:54:07;2.70;;;2.50;;
17993;SDS011;9122;48.406;9.984;2023-05-07T13:56:51;2.45;;;2.35;;
17993;SDS011;9122;48.406;9.984;2023-05-07T13:59:35;3.00;;;2.80;;
17993;SDS011;9122;48.406;9.984;2023-05-07T14:02:20;4.57;;;2.88;;
17993;SDS011;9122;48.406;9.984;2023-05-07T14:05:05;2.50;;;2.30;;
17993;SDS011;9122;48.406;9.984;2023-05-07T14:07:50;2.70;;;2.50;;
17993;SDS011;9122;48.406;9.984;2023-05-07T14:10:35;2.90;;;2.70;;
17993;SDS011;9122;48.406;9.984;2023-05-07T14:13:19;2.38;;;2.28;;
17993;SDS011;9122;48.406;9.984;2023-05-07T14:16:04;3.20;;;2.88;;
17993;SDS011;9122;48.406;9.984;2023-05-07T14:18:49;4.20;;;2.40;;
17993;SDS011;9122;48.406;9.984;2023-05-07T14:21:33;2.85;;;2.65;;
17993;SDS011;9122;48.406;9.984;2023-05-07T14:24:17;2.45;;;2.25;;
17993;SDS011;9122;48.406;9.984;2023-05-07T14:27:01;2.17;;;2.08;;
17993;SDS011;9122;48.406;9.984;2023-05-07T14:29:46;2.38;;;2.28;;
17993;SDS011;9122;48.406;9.984;2023-05-07T14:32:34;2.70;;;2.30;;
17993;SDS011;9122;48.406;9.984;2023-05-07T14:35:18;2.10;;;1.95;;
17993;SDS011;9122;48.406;9.984;2023-05-07T14:38:03;2.03;;;1.92;;
17993;SDS011;9122;48.406;9.984;2023-05-07T14:40:46;2.55;;;2.35;;
17993;SDS011;9122;48.406;9.984;2023-05-07T14:43:31;2.67;;;2.55;;
17993;SDS011;9122;48.406;9.984;2023-05-07T14:46:16;2.50;;;2.40;;
17993;SDS011;9122;48.406;9.984;2023-05-07T14:49:02;2.60;;;2.40;;
17993;SDS011;9122;48.406;9.984;2023-05-07T14:51:47;2.72;;;2.50;;
17993;SDS011;9122;48.406;9.984;2023-05-07T14:54:33;3.08;;;2.78;;
17993;SDS011;9122;48.406;9.984;2023-05-07T14:57:19;2.58;;;2.38;;
17993;SDS011;9122;48.406;9.984;2023-05-07T15:00:03;2.30;;;2.10;;
17993;SDS011;9122;48.406;9.984;2023-05-07T15:02:48;3.88;;;2.42;;
17993;SDS011;9122;48.406;9.984;2023-05-07T15:05:33;2.50;;;2.40;;
17993;SDS011;9122;48.406;9.984;2023-05-07T15:08:18;2.60;;;2.50;;
17993;SDS011;9122;48.406;9.984;2023-05-07T15:11:03;3.15;;;2.92;;
17993;SDS011;9122;48.406;9.984;2023-05-07T15:13:47;3.10;;;2.67;;
17993;SDS011;9122;48.406;9.984;2023-05-07T15:16:31;2.75;;;2.55;;
17993;SDS011;9122;48.406;9.984;2023-05-07T15:19:17;3.10;;;2.80;;
17993;SDS011;9122;48.406;9.984;2023-05-07T15:22:01;3.15;;;2.85;;
17993;SDS011;9122;48.406;9.984;2023-05-07T15:24:48;2.97;;;2.70;;
17993;SDS011;9122;48.406;9.984;2023-05-07T15:27:32;2.80;;;2.65;;
17993;SDS011;9122;48.406;9.984;2023-05-07T15:30:16;2.95;;;2.75;;
17993;SDS011;9122;48.406;9.984;2023-05-07T15:33:01;2.70;;;2.50;;
17993;SDS011;9122;48.406;9.984;2023-05-07T15:35:46;2.70;;;2.50;;
17993;SDS011;9122;48.406;9.984;2023-05-07T15:38:30;2.80;;;2.60;;
17993;SDS011;9122;48.406;9.984;2023-05-07T15:41:14;3.50;;;3.20;;
17993;SDS011;9122;48.406;9.984;2023-05-07T15:43:59;3.50;;;3.30;;
17993;SDS011;9122;48.406;9.984;2023-05-07T15:46:43;3.63;;;3.40;;
17993;SDS011;9122;48.406;9.984;2023-05-07T15:49:28;4.57;;;3.55;;
17993;SDS011;9122;48.406;9.984;2023-05-07T15:52:13;3.40;;;3.08;;
17993;SDS011;9122;48.406;9.984;2023-05-07T15:54:58;4.32;;;3.22;;
17993;SDS011;9122;48.406;9.984;2023-05-07T15:57:42;3.00;;;2.70;;
17993;SDS011;9122;48.406;9.984;2023-05-07T16:00:27;2.20;;;2.10;;
17993;SDS011;9122;48.406;9.984;2023-05-07T16:03:12;2.90;;;2.65;;
17993;SDS011;9122;48.406;9.984;2023-05-07T16:05:56;3.10;;;2.90;;
17993;SDS011;9122;48.406;9.984;2023-05-07T16:08:46;3.17;;;2.70;;
17993;SDS011;9122;48.406;9.984;2023-05-07T16:11:30;3.45;;;3.00;;
17993;SDS011;9122;48.406;9.984;2023-05-07T16:14:16;3.28;;;3.08;;
17993;SDS011;9122;48.406;9.984;2023-05-07T16:17:01;3.50;;;3.20;;
17993;SDS011;9122;48.406;9.984;2023-05-07T16:19:45;4.70;;;3.15;;
17993;SDS011;9122;48.406;9.984;2023-05-07T16:22:29;3.45;;;3.10;;
17993;SDS011;9122;48.406;9.984;2023-05-07T16:25:13;4.88;;;2.80;;
17993;SDS011;9122;48.406;9.984;2023-05-07T16:27:58;4.20;;;3.42;;
17993;SDS011;9122;48.406;9.984;2023-05-07T16:30:43;3.42;;;3.15;;
17993;SDS011;9122;48.406;9.984;2023-05-07T16:33:28;3.35;;;3.15;;
17993;SDS011;9122;48.406;9.984;2023-05-07T16:36:12;3.72;;;3.33;;
17993;SDS011;9122;48.406;9.984;2023-05-07T16:38:57;5.40;;;4.15;;
17993;SDS011;9122;48.406;9.984;2023-05-07T16:41:41;4.88;;;4.13;;
17993;SDS011;9122;48.406;9.984;2023-05-07T16:44:26;3.65;;;3.45;;
17993;SDS011;9122;48.406;9.984;2023-05-07T16:47:11;4.70;;;4.05;;
17993;SDS011;9122;48.406;9.984;2023-05-07T16:49:58;8.55;;;3.97;;
17993;SDS011;9122;48.406;9.984;2023-05-07T16:52:48;4.32;;;3.92;;
17993;SDS011;9122;48.406;9.984;2023-05-07T16:55:34;6.72;;;3.95;;
17993;SDS011;9122;48.406;9.984;2023-05-07T16:58:22;4.00;;;3.70;;
17993;SDS011;9122;48.406;9.984;2023-05-07T17:01:07;4.95;;;4.55;;
17993;SDS011;9122;48.406;9.984;2023-05-07T17:03:54;5.85;;;4.32;;
17993;SDS011;9122;48.406;9.984;2023-05-07T17:06:39;3.90;;;3.60;;